sensor_id;sensor_type;location;lat;lon;timestamp;temperature;humidity
9486;DHT22;4781;48.776;9.200;2022-10-16T00:01:44;15.20;99.90
9486;DHT22;4781;48.776;9.200;2022-10-16T00:04:13;15.20;99.90
9486;DHT22;4781;48.776;9.200;2022-10-16T00:06:41;15.20;99.90
9486;DHT22;4781;48.776;9.200;2022-10-16T00:09:10;15.30;99.90
9486;DHT22;4781;48.776;9.200;2022-10-16T00:11:40;15.40;99.90
9486;DHT22;4781;48.776;9.200;2022-10-16T00:14:13;15.40;99.90
9486;DHT22;4781;48.776;9.200;2022-10-16T00:16:42;15.30;99.90
9486;DHT22;4781;48.776;9.200;2022-10-16T00:19:12;15.30;99.90
9486;DHT22;4781;48.776;9.200;2022-10-16T00:21:41;15.20;99.90
9486;DHT22;4781;48.776;9.200;2022-10-16T00:24:10;15.20;99.90
9486;DHT22;4781;48.776;9.200;2022-10-16T00:26:39;15.10;99.90
9486;DHT22;4781;48.776;9.200;2022-10-16T00:29:08;15.10;99.90
9486;DHT22;4781;48.776;9.200;2022-10-16T00:31:37;15.10;99.90
9486;DHT22;4781;48.776;9.200;2022-10-16T00:34:05;15.10;99.90
9486;DHT22;4781;48.776;9.200;2022-10-16T00:36:33;15.10;99.90
9486;DHT22;4781;48.776;9.200;2022-10-16T00:39:02;15.00;99.90
9486;DHT22;4781;48.776;9.200;2022-10-16T00:41:32;15.00;99.90
9486;DHT22;4781;48.776;9.200;2022-10-16T00:44:03;15.00;99.90
9486;DHT22;4781;48.776;9.200;2022-10-16T00:46:41;14.90;99.90
9486;DHT22;4781;48.776;9.200;2022-10-16T00:49:15;14.90;99.90
9486;DHT22;4781;48.776;9.200;2022-10-16T00:51:47;14.90;99.90
9486;DHT22;4781;48.776;9.200;2022-10-16T00:56:58;14.80;99.90
9486;DHT22;4781;48.776;9.200;2022-10-16T00:59:38;14.80;99.90
9486;DHT22;4781;48.776;9.200;2022-10-16T01:02:11;14.80;99.90
9486;DHT22;4781;48.776;9.200;2022-10-16T01:04:48;14.80;99.90
9486;DHT22;4781;48.776;9.200;2022-10-16T01:13:09;14.90;99.90
9486;DHT22;4781;48.776;9.200;2022-10-16T01:15:48;15.00;99.90
9486;DHT22;4781;48.776;9.200;2022-10-16T01:18:37;15.10;99.90
9486;DHT22;4781;48.776;9.200;2022-10-16T01:24:12;15.20;99.90
9486;DHT22;4781;48.776;9.200;2022-10-16T01:29:50;15.20;99.90
9486;DHT22;4781;48.776;9.200;2022-10-16T01:35:17;15.10;99.90
9486;DHT22;4781;48.776;9.200;2022-10-16T01:40:34;14.90;99.90
9486;DHT22;4781;48.776;9.200;2022-10-16T01:43:06;14.90;99.90
9486;DHT22;4781;48.776;9.200;2022-10-16T01:45:49;14.90;99.90
9486;DHT22;4781;48.776;9.200;2022-10-16T01:48:19;14.90;99.90
9486;DHT22;4781;48.776;9.200;2022-10-16T01:51:05;14.90;99.90
9486;DHT22;4781;48.776;9.200;2022-10-16T01:53:35;14.90;99.90
9486;DHT22;4781;48.776;9.200;2022-10-16T01:56:07;14.90;99.90
9486;DHT22;4781;48.776;9.200;2022-10-16T01:58:39;14.90;99.90
9486;DHT22;4781;48.776;9.200;2022-10-16T02:01:17;14.90;99.90
9486;DHT22;4781;48.776;9.200;2022-10-16T02:03:50;14.90;99.90
9486;DHT22;4781;48.776;9.200;2022-10-16T02:06:20;14.90;99.90
9486;DHT22;4781;48.776;9.200;2022-10-16T02:08:49;14.90;99.90
9486;DHT22;4781;48.776;9.200;2022-10-16T02:11:17;14.90;99.90
9486;DHT22;4781;48.776;9.200;2022-10-16T02:13:51;14.90;99.90
9486;DHT22;4781;48.776;9.200;2022-10-16T02:16:38;14.90;99.90
9486;DHT22;4781;48.776;9.200;2022-10-16T02:19:14;14.90;99.90
9486;DHT22;4781;48.776;9.200;2022-10-16T02:21:50;14.90;99.90
9486;DHT22;4781;48.776;9.200;2022-10-16T02:27:17;14.90;99.90
9486;DHT22;4781;48.776;9.200;2022-10-16T02:29:58;14.90;99.90
9486;DHT22;4781;48.776;9.200;2022-10-16T02:32:31;14.90;99.90
9486;DHT22;4781;48.776;9.200;2022-10-16T02:35:01;14.90;99.90
9486;DHT22;4781;48.776;9.200;2022-10-16T02:37:31;15.00;99.90
9486;DHT22;4781;48.776;9.200;2022-10-16T02:40:00;15.00;99.90
9486;DHT22;4781;48.776;9.200;2022-10-16T02:45:23;14.90;99.90
9486;DHT22;4781;48.776;9.200;2022-10-16T02:47:52;14.90;99.90
9486;DHT22;4781;48.776;9.200;2022-10-16T02:50:20;14.80;99.90
9486;DHT22;4781;48.776;9.200;2022-10-16T02:52:51;14.90;99.90
9486;DHT22;4781;48.776;9.200;2022-10-16T02:55:19;14.90;99.90
9486;DHT22;4781;48.776;9.200;2022-10-16T02:57:48;14.90;99.90
9486;DHT22;4781;48.776;9.200;2022-10-16T03:00:17;14.80;99.90
9486;DHT22;4781;48.776;9.200;2022-10-16T03:02:46;14.80;99.90
9486;DHT22;4781;48.776;9.200;2022-10-16T03:05:15;14.80;99.90
9486;DHT22;4781;48.776;9.200;2022-10-16T03:07:43;14.80;99.90
9486;DHT22;4781;48.776;9.200;2022-10-16T03:10:11;14.80;99.90
9486;DHT22;4781;48.776;9.200;2022-10-16T03:12:40;14.80;99.90
9486;DHT22;4781;48.776;9.200;2022-10-16T03:15:09;14.70;99.90
9486;DHT22;4781;48.776;9.200;2022-10-16T03:17:37;14.70;99.90
9486;DHT22;4781;48.776;9.200;2022-10-16T03:20:06;14.70;99.90
9486;DHT22;4781;48.776;9.200;2022-10-16T03:22:35;14.70;99.90
9486;DHT22;4781;48.776;9.200;2022-10-16T03:27:29;14.70;99.90
9486;DHT22;4781;48.776;9.200;2022-10-16T03:29:57;14.70;99.90
9486;DHT22;4781;48.776;9.200;2022-10-16T03:32:26;14.70;99.90
9486;DHT22;4781;48.776;9.200;2022-10-16T03:34:55;14.70;99.90
9486;DHT22;4781;48.776;9.200;2022-10-16T03:37:23;14.70;99.90
9486;DHT22;4781;48.776;9.200;2022-10-16T03:39:52;14.60;99.90
9486;DHT22;4781;48.776;9.200;2022-10-16T03:42:20;14.60;99.90
9486;DHT22;4781;48.776;9.200;2022-10-16T03:44:49;14.60;99.90
9486;DHT22;4781;48.776;9.200;2022-10-16T03:47:17;14.60;99.90
9486;DHT22;4781;48.776;9.200;2022-10-16T03:49:48;14.60;99.90
9486;DHT22;4781;48.776;9.200;2022-10-16T03:52:17;14.60;99.90
9486;DHT22;4781;48.776;9.200;2022-10-16T03:54:45;14.60;99.90
9486;DHT22;4781;48.776;9.200;2022-10-16T03:57:14;14.50;99.90
9486;DHT22;4781;48.776;9.200;2022-10-16T03:59:42;14.60;99.90
9486;DHT22;4781;48.776;9.200;2022-10-16T04:02:10;14.60;99.90
9486;DHT22;4781;48.776;9.200;2022-10-16T04:04:39;14.50;99.90
9486;DHT22;4781;48.776;9.200;2022-10-16T04:07:07;14.60;99.90
9486;DHT22;4781;48.776;9.200;2022-10-16T04:09:36;14.50;99.90
9486;DHT22;4781;48.776;9.200;2022-10-16T04:12:04;14.50;99.90
9486;DHT22;4781;48.776;9.200;2022-10-16T04:14:32;14.50;99.90
9486;DHT22;4781;48.776;9.200;2022-10-16T04:17:01;14.50;99.90
9486;DHT22;4781;48.776;9.200;2022-10-16T04:19:29;14.50;99.90
9486;DHT22;4781;48.776;9.200;2022-10-16T04:21:58;14.40;99.90
9486;DHT22;4781;48.776;9.200;2022-10-16T04:24:26;14.40;99.90
9486;DHT22;4781;48.776;9.200;2022-10-16T04:26:54;14.40;99.90
9486;DHT22;4781;48.776;9.200;2022-10-16T04:29:23;14.40;99.90
9486;DHT22;4781;48.776;9.200;2022-10-16T04:31:51;14.40;99.90
9486;DHT22;4781;48.776;9.200;2022-10-16T04:34:20;14.40;99.90
9486;DHT22;4781;48.776;9.200;2022-10-16T04:36:48;14.40;99.90
9486;DHT22;4781;48.776;9.200;2022-10-16T04:39:17;14.40;99.90
9486;DHT22;4781;48.776;9.200;2022-10-16T04:41:45;14.30;99.90
9486;DHT22;4781;48.776;9.200;2022-10-16T04:44:13;14.30;99.90
9486;DHT22;4781;48.776;9.200;2022-10-16T04:46:42;14.40;99.90
9486;DHT22;4781;48.776;9.200;2022-10-16T04:49:10;14.40;99.90
9486;DHT22;4781;48.776;9.200;2022-10-16T04:51:39;14.30;99.90
9486;DHT22;4781;48.776;9.200;2022-10-16T04:54:08;14.30;99.90
9486;DHT22;4781;48.776;9.200;2022-10-16T04:56:37;14.30;99.90
9486;DHT22;4781;48.776;9.200;2022-10-16T04:59:07;14.50;99.90
9486;DHT22;4781;48.776;9.200;2022-10-16T05:01:36;14.50;99.90
9486;DHT22;4781;48.776;9.200;2022-10-16T05:04:04;14.40;99.90
9486;DHT22;4781;48.776;9.200;2022-10-16T05:06:33;14.40;99.90
9486;DHT22;4781;48.776;9.200;2022-10-16T05:09:01;14.40;99.90
9486;DHT22;4781;48.776;9.200;2022-10-16T05:11:30;14.40;99.90
9486;DHT22;4781;48.776;9.200;2022-10-16T05:13:59;14.40;99.90
9486;DHT22;4781;48.776;9.200;2022-10-16T05:16:28;13.70;99.90
9486;DHT22;4781;48.776;9.200;2022-10-16T05:18:57;14.40;99.90
9486;DHT22;4781;48.776;9.200;2022-10-16T05:21:25;14.40;99.90
9486;DHT22;4781;48.776;9.200;2022-10-16T05:26:43;14.40;99.90
9486;DHT22;4781;48.776;9.200;2022-10-16T05:29:11;14.40;99.90
9486;DHT22;4781;48.776;9.200;2022-10-16T05:31:40;14.40;99.90
9486;DHT22;4781;48.776;9.200;2022-10-16T05:34:08;14.40;99.90
9486;DHT22;4781;48.776;9.200;2022-10-16T05:36:37;14.40;99.90
9486;DHT22;4781;48.776;9.200;2022-10-16T05:39:05;14.60;99.90
9486;DHT22;4781;48.776;9.200;2022-10-16T05:41:33;14.60;99.90
9486;DHT22;4781;48.776;9.200;2022-10-16T05:44:04;14.70;99.90
9486;DHT22;4781;48.776;9.200;2022-10-16T05:46:33;14.80;99.90
9486;DHT22;4781;48.776;9.200;2022-10-16T05:49:01;14.80;99.90
9486;DHT22;4781;48.776;9.200;2022-10-16T05:51:30;14.80;99.90
9486;DHT22;4781;48.776;9.200;2022-10-16T05:53:58;14.70;99.90
9486;DHT22;4781;48.776;9.200;2022-10-16T05:56:27;14.60;99.90
9486;DHT22;4781;48.776;9.200;2022-10-16T05:58:55;14.50;99.90
9486;DHT22;4781;48.776;9.200;2022-10-16T06:01:24;14.50;99.90
9486;DHT22;4781;48.776;9.200;2022-10-16T06:03:53;14.50;99.90
9486;DHT22;4781;48.776;9.200;2022-10-16T06:06:23;14.50;99.90
9486;DHT22;4781;48.776;9.200;2022-10-16T06:08:55;14.50;99.90
9486;DHT22;4781;48.776;9.200;2022-10-16T06:11:27;14.60;99.90
9486;DHT22;4781;48.776;9.200;2022-10-16T06:13:58;14.60;99.90
9486;DHT22;4781;48.776;9.200;2022-10-16T06:16:29;14.50;99.90
9486;DHT22;4781;48.776;9.200;2022-10-16T06:18:57;14.60;99.90
9486;DHT22;4781;48.776;9.200;2022-10-16T06:21:29;14.60;99.90
9486;DHT22;4781;48.776;9.200;2022-10-16T06:23:58;14.60;99.90
9486;DHT22;4781;48.776;9.200;2022-10-16T06:26:28;14.60;99.90
9486;DHT22;4781;48.776;9.200;2022-10-16T06:28:58;14.70;99.90
9486;DHT22;4781;48.776;9.200;2022-10-16T06:31:27;14.70;99.90
9486;DHT22;4781;48.776;9.200;2022-10-16T06:33:58;14.70;99.90
9486;DHT22;4781;48.776;9.200;2022-10-16T06:36:26;14.70;99.90
9486;DHT22;4781;48.776;9.200;2022-10-16T06:38:55;14.80;99.90
9486;DHT22;4781;48.776;9.200;2022-10-16T06:41:23;14.70;99.90
9486;DHT22;4781;48.776;9.200;2022-10-16T06:43:52;14.80;99.90
9486;DHT22;4781;48.776;9.200;2022-10-16T06:46:22;14.80;99.90
9486;DHT22;4781;48.776;9.200;2022-10-16T06:48:52;14.90;99.90
9486;DHT22;4781;48.776;9.200;2022-10-16T06:51:23;14.90;99.90
9486;DHT22;4781;48.776;9.200;2022-10-16T06:53:54;15.00;99.90
9486;DHT22;4781;48.776;9.200;2022-10-16T06:56:27;15.10;99.90
9486;DHT22;4781;48.776;9.200;2022-10-16T06:58:57;15.10;99.90
9486;DHT22;4781;48.776;9.200;2022-10-16T07:01:26;15.10;99.90
9486;DHT22;4781;48.776;9.200;2022-10-16T07:03:55;15.20;99.90
9486;DHT22;4781;48.776;9.200;2022-10-16T07:06:25;15.20;99.90
9486;DHT22;4781;48.776;9.200;2022-10-16T07:08:54;15.20;99.90
9486;DHT22;4781;48.776;9.200;2022-10-16T07:11:23;15.20;99.90
9486;DHT22;4781;48.776;9.200;2022-10-16T07:13:52;15.30;99.90
9486;DHT22;4781;48.776;9.200;2022-10-16T07:16:22;15.30;99.90
9486;DHT22;4781;48.776;9.200;2022-10-16T07:18:53;15.30;99.90
9486;DHT22;4781;48.776;9.200;2022-10-16T07:21:24;15.40;99.90
9486;DHT22;4781;48.776;9.200;2022-10-16T07:23:57;15.50;99.90
9486;DHT22;4781;48.776;9.200;2022-10-16T07:26:29;15.50;99.90
9486;DHT22;4781;48.776;9.200;2022-10-16T07:28:58;15.50;99.90
9486;DHT22;4781;48.776;9.200;2022-10-16T07:31:27;15.60;99.90
9486;DHT22;4781;48.776;9.200;2022-10-16T07:33:58;15.50;99.90
9486;DHT22;4781;48.776;9.200;2022-10-16T07:36:27;15.50;99.90
9486;DHT22;4781;48.776;9.200;2022-10-16T07:38:55;15.50;99.90
9486;DHT22;4781;48.776;9.200;2022-10-16T07:41:24;15.50;99.90
9486;DHT22;4781;48.776;9.200;2022-10-16T07:43:53;15.50;99.90
9486;DHT22;4781;48.776;9.200;2022-10-16T07:46:23;15.50;99.90
9486;DHT22;4781;48.776;9.200;2022-10-16T07:48:51;15.50;99.90
9486;DHT22;4781;48.776;9.200;2022-10-16T07:51:22;15.50;99.90
9486;DHT22;4781;48.776;9.200;2022-10-16T07:53:52;15.60;99.90
9486;DHT22;4781;48.776;9.200;2022-10-16T07:56:21;15.60;99.90
9486;DHT22;4781;48.776;9.200;2022-10-16T07:58:50;15.60;99.90
9486;DHT22;4781;48.776;9.200;2022-10-16T08:01:19;15.70;99.90
9486;DHT22;4781;48.776;9.200;2022-10-16T08:03:49;15.70;99.90
9486;DHT22;4781;48.776;9.200;2022-10-16T08:06:20;15.70;99.90
9486;DHT22;4781;48.776;9.200;2022-10-16T08:08:49;15.80;99.90
9486;DHT22;4781;48.776;9.200;2022-10-16T08:11:18;15.80;99.90
9486;DHT22;4781;48.776;9.200;2022-10-16T08:13:47;15.90;99.90
9486;DHT22;4781;48.776;9.200;2022-10-16T08:16:15;16.00;99.90
9486;DHT22;4781;48.776;9.200;2022-10-16T08:18:44;16.00;99.90
9486;DHT22;4781;48.776;9.200;2022-10-16T08:21:15;16.20;99.90
9486;DHT22;4781;48.776;9.200;2022-10-16T08:23:44;16.40;99.90
9486;DHT22;4781;48.776;9.200;2022-10-16T08:26:13;16.50;99.90
9486;DHT22;4781;48.776;9.200;2022-10-16T08:28:41;16.60;99.90
9486;DHT22;4781;48.776;9.200;2022-10-16T08:31:12;16.70;99.90
9486;DHT22;4781;48.776;9.200;2022-10-16T08:33:43;16.80;99.90
9486;DHT22;4781;48.776;9.200;2022-10-16T08:36:14;17.00;99.90
9486;DHT22;4781;48.776;9.200;2022-10-16T08:38:43;17.10;99.90
9486;DHT22;4781;48.776;9.200;2022-10-16T08:41:20;17.20;99.90
9486;DHT22;4781;48.776;9.200;2022-10-16T08:46:51;17.30;99.90
9486;DHT22;4781;48.776;9.200;2022-10-16T08:49:22;17.30;99.90
9486;DHT22;4781;48.776;9.200;2022-10-16T08:51:51;17.40;99.90
9486;DHT22;4781;48.776;9.200;2022-10-16T08:54:45;17.40;99.90
9486;DHT22;4781;48.776;9.200;2022-10-16T08:57:20;17.40;99.90
9486;DHT22;4781;48.776;9.200;2022-10-16T08:59:48;17.30;99.90
9486;DHT22;4781;48.776;9.200;2022-10-16T09:02:26;17.40;99.90
9486;DHT22;4781;48.776;9.200;2022-10-16T09:05:18;17.40;99.90
9486;DHT22;4781;48.776;9.200;2022-10-16T09:10:58;17.50;99.90
9486;DHT22;4781;48.776;9.200;2022-10-16T09:16:43;17.70;99.90
9486;DHT22;4781;48.776;9.200;2022-10-16T09:19:39;18.00;99.90
9486;DHT22;4781;48.776;9.200;2022-10-16T09:22:16;18.10;99.90
9486;DHT22;4781;48.776;9.200;2022-10-16T09:24:44;18.20;99.90
9486;DHT22;4781;48.776;9.200;2022-10-16T09:27:14;18.30;99.90
9486;DHT22;4781;48.776;9.200;2022-10-16T09:29:43;18.30;99.90
9486;DHT22;4781;48.776;9.200;2022-10-16T09:32:14;18.30;99.90
9486;DHT22;4781;48.776;9.200;2022-10-16T09:34:49;18.40;99.90
9486;DHT22;4781;48.776;9.200;2022-10-16T09:37:22;18.40;99.90
9486;DHT22;4781;48.776;9.200;2022-10-16T09:39:55;18.80;99.90
9486;DHT22;4781;48.776;9.200;2022-10-16T09:42:34;19.40;99.90
9486;DHT22;4781;48.776;9.200;2022-10-16T09:45:04;19.30;99.90
9486;DHT22;4781;48.776;9.200;2022-10-16T09:47:35;19.20;99.90
9486;DHT22;4781;48.776;9.200;2022-10-16T09:50:20;19.00;99.90
9486;DHT22;4781;48.776;9.200;2022-10-16T09:52:49;19.10;99.90
9486;DHT22;4781;48.776;9.200;2022-10-16T09:55:18;19.30;99.90
9486;DHT22;4781;48.776;9.200;2022-10-16T09:57:51;19.60;99.90
9486;DHT22;4781;48.776;9.200;2022-10-16T10:00:20;19.90;99.90
9486;DHT22;4781;48.776;9.200;2022-10-16T10:02:50;19.80;99.90
9486;DHT22;4781;48.776;9.200;2022-10-16T10:05:24;19.80;99.90
9486;DHT22;4781;48.776;9.200;2022-10-16T10:07:59;19.80;99.90
9486;DHT22;4781;48.776;9.200;2022-10-16T10:10:32;19.80;99.90
9486;DHT22;4781;48.776;9.200;2022-10-16T10:13:03;19.80;99.90
9486;DHT22;4781;48.776;9.200;2022-10-16T10:15:33;19.80;99.90
9486;DHT22;4781;48.776;9.200;2022-10-16T10:18:14;19.80;99.90
9486;DHT22;4781;48.776;9.200;2022-10-16T10:20:36;19.90;99.90
9486;DHT22;4781;48.776;9.200;2022-10-16T10:23:25;20.00;99.90
9486;DHT22;4781;48.776;9.200;2022-10-16T10:26:16;20.10;99.90
9486;DHT22;4781;48.776;9.200;2022-10-16T10:28:54;20.10;99.90
9486;DHT22;4781;48.776;9.200;2022-10-16T10:31:46;20.10;99.90
9486;DHT22;4781;48.776;9.200;2022-10-16T10:37:47;20.20;99.90
9486;DHT22;4781;48.776;9.200;2022-10-16T10:43:38;20.50;99.90
9486;DHT22;4781;48.776;9.200;2022-10-16T10:58:46;21.40;99.90
9486;DHT22;4781;48.776;9.200;2022-10-16T11:01:50;22.10;99.90
9486;DHT22;4781;48.776;9.200;2022-10-16T11:07:20;22.10;99.90
9486;DHT22;4781;48.776;9.200;2022-10-16T11:09:56;22.10;99.90
9486;DHT22;4781;48.776;9.200;2022-10-16T11:12:40;21.90;99.90
9486;DHT22;4781;48.776;9.200;2022-10-16T11:15:29;21.90;99.90
9486;DHT22;4781;48.776;9.200;2022-10-16T11:18:06;22.20;99.90
9486;DHT22;4781;48.776;9.200;2022-10-16T11:21:02;22.20;99.90
9486;DHT22;4781;48.776;9.200;2022-10-16T11:23:54;22.30;99.90
9486;DHT22;4781;48.776;9.200;2022-10-16T11:26:27;22.40;99.90
9486;DHT22;4781;48.776;9.200;2022-10-16T11:29:01;22.40;99.90
9486;DHT22;4781;48.776;9.200;2022-10-16T11:31:45;22.30;99.90
9486;DHT22;4781;48.776;9.200;2022-10-16T11:37:21;22.50;99.90
9486;DHT22;4781;48.776;9.200;2022-10-16T11:39:47;22.70;99.90
9486;DHT22;4781;48.776;9.200;2022-10-16T11:42:54;22.90;99.90
9486;DHT22;4781;48.776;9.200;2022-10-16T11:48:34;22.90;99.90
9486;DHT22;4781;48.776;9.200;2022-10-16T11:54:32;23.50;99.90
9486;DHT22;4781;48.776;9.200;2022-10-16T11:57:02;23.90;99.90
9486;DHT22;4781;48.776;9.200;2022-10-16T11:59:48;24.20;99.90
9486;DHT22;4781;48.776;9.200;2022-10-16T12:02:28;24.20;99.90
9486;DHT22;4781;48.776;9.200;2022-10-16T12:05:15;24.10;99.90
9486;DHT22;4781;48.776;9.200;2022-10-16T12:07:46;24.10;99.90
9486;DHT22;4781;48.776;9.200;2022-10-16T12:10:25;24.00;99.90
9486;DHT22;4781;48.776;9.200;2022-10-16T12:12:55;24.10;99.90
9486;DHT22;4781;48.776;9.200;2022-10-16T12:15:32;24.00;99.90
9486;DHT22;4781;48.776;9.200;2022-10-16T12:18:01;23.90;99.90
9486;DHT22;4781;48.776;9.200;2022-10-16T12:20:33;23.80;99.90
9486;DHT22;4781;48.776;9.200;2022-10-16T12:23:05;23.70;99.90
9486;DHT22;4781;48.776;9.200;2022-10-16T12:25:39;23.70;99.90
9486;DHT22;4781;48.776;9.200;2022-10-16T12:28:21;23.70;99.90
9486;DHT22;4781;48.776;9.200;2022-10-16T12:31:11;23.80;99.90
9486;DHT22;4781;48.776;9.200;2022-10-16T12:34:01;23.70;99.90
9486;DHT22;4781;48.776;9.200;2022-10-16T12:36:32;23.60;99.90
9486;DHT22;4781;48.776;9.200;2022-10-16T12:39:01;23.40;99.90
9486;DHT22;4781;48.776;9.200;2022-10-16T12:41:35;23.30;99.90
9486;DHT22;4781;48.776;9.200;2022-10-16T12:44:25;23.30;99.90
9486;DHT22;4781;48.776;9.200;2022-10-16T12:46:54;23.30;99.90
9486;DHT22;4781;48.776;9.200;2022-10-16T12:49:36;23.40;99.90
9486;DHT22;4781;48.776;9.200;2022-10-16T12:52:23;23.30;99.90
9486;DHT22;4781;48.776;9.200;2022-10-16T12:54:56;23.30;99.90
9486;DHT22;4781;48.776;9.200;2022-10-16T13:05:52;22.90;99.90
9486;DHT22;4781;48.776;9.200;2022-10-16T13:14:39;22.50;99.90
9486;DHT22;4781;48.776;9.200;2022-10-16T13:17:49;22.60;99.90
9486;DHT22;4781;48.776;9.200;2022-10-16T13:26:46;22.70;99.90
9486;DHT22;4781;48.776;9.200;2022-10-16T13:29:28;22.70;99.90
9486;DHT22;4781;48.776;9.200;2022-10-16T13:31:59;22.70;99.90
9486;DHT22;4781;48.776;9.200;2022-10-16T13:34:28;22.70;99.90
9486;DHT22;4781;48.776;9.200;2022-10-16T13:36:57;22.60;99.90
9486;DHT22;4781;48.776;9.200;2022-10-16T13:39:28;22.70;99.90
9486;DHT22;4781;48.776;9.200;2022-10-16T13:42:15;22.70;99.90
9486;DHT22;4781;48.776;9.200;2022-10-16T13:44:51;22.60;99.90
9486;DHT22;4781;48.776;9.200;2022-10-16T13:47:20;22.70;99.90
9486;DHT22;4781;48.776;9.200;2022-10-16T13:50:05;22.80;99.90
9486;DHT22;4781;48.776;9.200;2022-10-16T13:52:36;22.80;99.90
9486;DHT22;4781;48.776;9.200;2022-10-16T13:55:12;22.80;99.90
9486;DHT22;4781;48.776;9.200;2022-10-16T13:57:43;22.90;99.90
9486;DHT22;4781;48.776;9.200;2022-10-16T14:00:23;22.90;99.90
9486;DHT22;4781;48.776;9.200;2022-10-16T14:02:58;22.80;99.90
9486;DHT22;4781;48.776;9.200;2022-10-16T14:05:57;22.80;99.90
9486;DHT22;4781;48.776;9.200;2022-10-16T14:08:29;22.60;99.90
9486;DHT22;4781;48.776;9.200;2022-10-16T14:11:00;22.50;99.90
9486;DHT22;4781;48.776;9.200;2022-10-16T14:13:42;22.50;99.90
9486;DHT22;4781;48.776;9.200;2022-10-16T14:16:21;22.30;99.90
9486;DHT22;4781;48.776;9.200;2022-10-16T14:19:02;22.30;99.90
9486;DHT22;4781;48.776;9.200;2022-10-16T14:21:33;22.30;99.90
9486;DHT22;4781;48.776;9.200;2022-10-16T14:24:13;22.20;99.90
9486;DHT22;4781;48.776;9.200;2022-10-16T14:26:44;22.20;99.90
9486;DHT22;4781;48.776;9.200;2022-10-16T14:29:18;22.10;99.90
9486;DHT22;4781;48.776;9.200;2022-10-16T14:32:00;22.20;99.90
9486;DHT22;4781;48.776;9.200;2022-10-16T14:34:34;22.10;99.90
9486;DHT22;4781;48.776;9.200;2022-10-16T14:37:24;22.10;99.90
9486;DHT22;4781;48.776;9.200;2022-10-16T14:39:54;22.00;99.90
9486;DHT22;4781;48.776;9.200;2022-10-16T14:42:25;22.00;99.90
9486;DHT22;4781;48.776;9.200;2022-10-16T14:44:54;21.90;99.90
9486;DHT22;4781;48.776;9.200;2022-10-16T14:47:25;21.80;99.90
9486;DHT22;4781;48.776;9.200;2022-10-16T14:49:54;21.80;99.90
9486;DHT22;4781;48.776;9.200;2022-10-16T14:52:25;21.70;99.90
9486;DHT22;4781;48.776;9.200;2022-10-16T14:54:53;21.90;99.90
9486;DHT22;4781;48.776;9.200;2022-10-16T14:57:26;21.90;99.90
9486;DHT22;4781;48.776;9.200;2022-10-16T14:59:55;21.90;99.90
9486;DHT22;4781;48.776;9.200;2022-10-16T15:02:34;21.80;99.90
9486;DHT22;4781;48.776;9.200;2022-10-16T15:05:22;21.80;99.90
9486;DHT22;4781;48.776;9.200;2022-10-16T15:07:54;21.70;99.90
9486;DHT22;4781;48.776;9.200;2022-10-16T15:10:25;21.90;99.90
9486;DHT22;4781;48.776;9.200;2022-10-16T15:12:54;21.90;99.90
9486;DHT22;4781;48.776;9.200;2022-10-16T15:15:34;21.90;99.90
9486;DHT22;4781;48.776;9.200;2022-10-16T15:18:05;21.90;99.90
9486;DHT22;4781;48.776;9.200;2022-10-16T15:20:35;21.80;99.90
9486;DHT22;4781;48.776;9.200;2022-10-16T15:23:16;21.70;99.90
9486;DHT22;4781;48.776;9.200;2022-10-16T15:26:00;21.70;99.90
9486;DHT22;4781;48.776;9.200;2022-10-16T15:28:28;21.70;99.90
9486;DHT22;4781;48.776;9.200;2022-10-16T15:30:57;21.70;99.90
9486;DHT22;4781;48.776;9.200;2022-10-16T15:33:27;21.50;99.90
9486;DHT22;4781;48.776;9.200;2022-10-16T15:35:57;21.40;99.90
9486;DHT22;4781;48.776;9.200;2022-10-16T15:38:30;21.40;99.90
9486;DHT22;4781;48.776;9.200;2022-10-16T15:40:56;21.40;99.90
9486;DHT22;4781;48.776;9.200;2022-10-16T15:43:25;21.40;99.90
9486;DHT22;4781;48.776;9.200;2022-10-16T15:46:06;21.30;99.90
9486;DHT22;4781;48.776;9.200;2022-10-16T15:48:37;21.20;99.90
9486;DHT22;4781;48.776;9.200;2022-10-16T15:51:07;21.10;99.90
9486;DHT22;4781;48.776;9.200;2022-10-16T15:53:36;21.00;99.90
9486;DHT22;4781;48.776;9.200;2022-10-16T15:56:05;20.90;99.90
9486;DHT22;4781;48.776;9.200;2022-10-16T15:58:34;20.90;99.90
9486;DHT22;4781;48.776;9.200;2022-10-16T16:01:03;20.90;99.90
9486;DHT22;4781;48.776;9.200;2022-10-16T16:03:32;20.80;99.90
9486;DHT22;4781;48.776;9.200;2022-10-16T16:06:07;20.70;99.90
9486;DHT22;4781;48.776;9.200;2022-10-16T16:08:36;20.70;99.90
9486;DHT22;4781;48.776;9.200;2022-10-16T16:11:08;20.60;99.90
9486;DHT22;4781;48.776;9.200;2022-10-16T16:13:37;20.50;99.90
9486;DHT22;4781;48.776;9.200;2022-10-16T16:16:14;20.50;99.90
9486;DHT22;4781;48.776;9.200;2022-10-16T16:18:43;20.30;99.90
9486;DHT22;4781;48.776;9.200;2022-10-16T16:21:12;20.20;99.90
9486;DHT22;4781;48.776;9.200;2022-10-16T16:23:40;20.10;99.90
9486;DHT22;4781;48.776;9.200;2022-10-16T16:26:14;20.10;99.90
9486;DHT22;4781;48.776;9.200;2022-10-16T16:28:45;20.00;99.90
9486;DHT22;4781;48.776;9.200;2022-10-16T16:31:13;19.90;99.90
9486;DHT22;4781;48.776;9.200;2022-10-16T16:33:42;19.70;99.90
9486;DHT22;4781;48.776;9.200;2022-10-16T16:36:10;19.60;99.90
9486;DHT22;4781;48.776;9.200;2022-10-16T16:38:39;19.50;99.90
9486;DHT22;4781;48.776;9.200;2022-10-16T16:41:22;19.40;99.90
9486;DHT22;4781;48.776;9.200;2022-10-16T16:43:53;19.30;99.90
9486;DHT22;4781;48.776;9.200;2022-10-16T16:46:22;19.30;99.90
9486;DHT22;4781;48.776;9.200;2022-10-16T16:48:50;19.30;99.90
9486;DHT22;4781;48.776;9.200;2022-10-16T16:51:20;19.30;99.90
9486;DHT22;4781;48.776;9.200;2022-10-16T16:53:51;19.20;99.90
9486;DHT22;4781;48.776;9.200;2022-10-16T16:56:22;19.20;99.90
9486;DHT22;4781;48.776;9.200;2022-10-16T16:58:54;19.30;99.90
9486;DHT22;4781;48.776;9.200;2022-10-16T17:01:25;19.30;99.90
9486;DHT22;4781;48.776;9.200;2022-10-16T17:03:55;19.30;99.90
9486;DHT22;4781;48.776;9.200;2022-10-16T17:06:28;19.30;99.90
9486;DHT22;4781;48.776;9.200;2022-10-16T17:08:56;19.30;99.90
9486;DHT22;4781;48.776;9.200;2022-10-16T17:11:26;19.30;99.90
9486;DHT22;4781;48.776;9.200;2022-10-16T17:13:56;19.30;99.90
9486;DHT22;4781;48.776;9.200;2022-10-16T17:16:29;19.30;99.90
9486;DHT22;4781;48.776;9.200;2022-10-16T17:19:05;19.30;99.90
9486;DHT22;4781;48.776;9.200;2022-10-16T17:21:30;19.20;99.90
9486;DHT22;4781;48.776;9.200;2022-10-16T17:23:59;19.10;99.90
9486;DHT22;4781;48.776;9.200;2022-10-16T17:26:28;18.80;99.90
9486;DHT22;4781;48.776;9.200;2022-10-16T17:28:59;18.70;99.90
9486;DHT22;4781;48.776;9.200;2022-10-16T17:31:30;18.70;99.90
9486;DHT22;4781;48.776;9.200;2022-10-16T17:34:03;18.60;99.90
9486;DHT22;4781;48.776;9.200;2022-10-16T17:36:35;18.60;99.90
9486;DHT22;4781;48.776;9.200;2022-10-16T17:39:08;18.60;99.90
9486;DHT22;4781;48.776;9.200;2022-10-16T17:41:38;18.50;99.90
9486;DHT22;4781;48.776;9.200;2022-10-16T17:44:07;18.50;99.90
9486;DHT22;4781;48.776;9.200;2022-10-16T17:46:36;18.40;99.90
9486;DHT22;4781;48.776;9.200;2022-10-16T17:49:05;18.40;99.90
9486;DHT22;4781;48.776;9.200;2022-10-16T17:51:33;18.40;99.90
9486;DHT22;4781;48.776;9.200;2022-10-16T17:54:02;18.30;99.90
9486;DHT22;4781;48.776;9.200;2022-10-16T17:56:31;18.30;99.90
9486;DHT22;4781;48.776;9.200;2022-10-16T17:59:00;18.20;99.90
9486;DHT22;4781;48.776;9.200;2022-10-16T18:01:32;18.20;99.90
9486;DHT22;4781;48.776;9.200;2022-10-16T18:04:10;18.20;99.90
9486;DHT22;4781;48.776;9.200;2022-10-16T18:06:36;18.10;99.90
9486;DHT22;4781;48.776;9.200;2022-10-16T18:09:07;18.10;99.90